sensor_id;sensor_type;location;lat;lon;timestamp;P1;durP1;ratioP1;P2;durP2;ratioP2
19221;SDS011;9745;50.828;4.378;2022-09-13T00:01:55;2.70;;;1.97;;
19221;SDS011;9745;50.828;4.378;2022-09-13T00:04:21;3.33;;;2.30;;
19221;SDS011;9745;50.828;4.378;2022-09-13T00:06:47;3.83;;;2.20;;
19221;SDS011;9745;50.828;4.378;2022-09-13T00:09:13;4.90;;;1.83;;
19221;SDS011;9745;50.828;4.378;2022-09-13T00:11:38;5.27;;;1.90;;
19221;SDS011;9745;50.828;4.378;2022-09-13T00:14:04;3.97;;;1.90;;
19221;SDS011;9745;50.828;4.378;2022-09-13T00:16:30;3.33;;;2.00;;
19221;SDS011;9745;50.828;4.378;2022-09-13T00:18:58;2.80;;;1.97;;
19221;SDS011;9745;50.828;4.378;2022-09-13T00:21:24;2.57;;;1.83;;
19221;SDS011;9745;50.828;4.378;2022-09-13T00:23:52;2.87;;;1.97;;
19221;SDS011;9745;50.828;4.378;2022-09-13T00:26:19;2.97;;;1.70;;
19221;SDS011;9745;50.828;4.378;2022-09-13T00:28:49;3.37;;;1.70;;
19221;SDS011;9745;50.828;4.378;2022-09-13T00:31:16;3.00;;;1.67;;
19221;SDS011;9745;50.828;4.378;2022-09-13T00:33:42;2.17;;;1.73;;
19221;SDS011;9745;50.828;4.378;2022-09-13T00:36:08;4.23;;;1.77;;
19221;SDS011;9745;50.828;4.378;2022-09-13T00:38:35;3.20;;;1.60;;
19221;SDS011;9745;50.828;4.378;2022-09-13T00:41:02;2.80;;;1.60;;
19221;SDS011;9745;50.828;4.378;2022-09-13T00:43:45;1.60;;;1.30;;
19221;SDS011;9745;50.828;4.378;2022-09-13T00:46:12;2.90;;;1.60;;
19221;SDS011;9745;50.828;4.378;2022-09-13T00:48:39;6.07;;;1.50;;
19221;SDS011;9745;50.828;4.378;2022-09-13T00:51:05;3.53;;;1.57;;
19221;SDS011;9745;50.828;4.378;2022-09-13T00:53:34;4.20;;;1.57;;
19221;SDS011;9745;50.828;4.378;2022-09-13T00:56:03;4.00;;;1.40;;
19221;SDS011;9745;50.828;4.378;2022-09-13T00:58:32;4.47;;;1.37;;
19221;SDS011;9745;50.828;4.378;2022-09-13T01:00:59;3.87;;;1.60;;
19221;SDS011;9745;50.828;4.378;2022-09-13T01:03:27;3.83;;;1.27;;
19221;SDS011;9745;50.828;4.378;2022-09-13T01:05:59;1.70;;;1.20;;
19221;SDS011;9745;50.828;4.378;2022-09-13T01:08:26;1.60;;;1.30;;
19221;SDS011;9745;50.828;4.378;2022-09-13T01:10:55;1.90;;;1.30;;
19221;SDS011;9745;50.828;4.378;2022-09-13T01:13:24;2.77;;;1.17;;
19221;SDS011;9745;50.828;4.378;2022-09-13T01:15:51;4.87;;;1.60;;
19221;SDS011;9745;50.828;4.378;2022-09-13T01:18:17;2.10;;;1.30;;
19221;SDS011;9745;50.828;4.378;2022-09-13T01:31:38;1.77;;;1.53;;
19221;SDS011;9745;50.828;4.378;2022-09-13T01:49:19;2.33;;;1.50;;
19221;SDS011;9745;50.828;4.378;2022-09-13T01:52:04;3.30;;;1.80;;
19221;SDS011;9745;50.828;4.378;2022-09-13T01:54:47;2.13;;;1.60;;
19221;SDS011;9745;50.828;4.378;2022-09-13T01:59:50;3.37;;;1.53;;
19221;SDS011;9745;50.828;4.378;2022-09-13T02:02:19;6.43;;;1.53;;
19221;SDS011;9745;50.828;4.378;2022-09-13T02:04:48;2.97;;;1.57;;
19221;SDS011;9745;50.828;4.378;2022-09-13T02:07:18;3.30;;;1.43;;
19221;SDS011;9745;50.828;4.378;2022-09-13T02:09:48;2.07;;;1.57;;
19221;SDS011;9745;50.828;4.378;2022-09-13T02:12:20;2.70;;;1.73;;
19221;SDS011;9745;50.828;4.378;2022-09-13T02:14:53;2.40;;;1.70;;
19221;SDS011;9745;50.828;4.378;2022-09-13T02:17:22;1.90;;;1.43;;
19221;SDS011;9745;50.828;4.378;2022-09-13T02:19:52;2.47;;;1.37;;
19221;SDS011;9745;50.828;4.378;2022-09-13T02:22:21;2.03;;;1.40;;
19221;SDS011;9745;50.828;4.378;2022-09-13T02:24:49;2.60;;;1.47;;
19221;SDS011;9745;50.828;4.378;2022-09-13T02:27:20;1.43;;;1.10;;
19221;SDS011;9745;50.828;4.378;2022-09-13T02:29:48;5.90;;;1.33;;
19221;SDS011;9745;50.828;4.378;2022-09-13T02:35:05;3.37;;;1.13;;
19221;SDS011;9745;50.828;4.378;2022-09-13T02:37:33;2.93;;;1.50;;
19221;SDS011;9745;50.828;4.378;2022-09-13T02:40:02;2.37;;;1.40;;
19221;SDS011;9745;50.828;4.378;2022-09-13T02:42:30;3.70;;;1.67;;
19221;SDS011;9745;50.828;4.378;2022-09-13T02:45:00;1.47;;;1.20;;
19221;SDS011;9745;50.828;4.378;2022-09-13T02:50:16;2.67;;;1.47;;
19221;SDS011;9745;50.828;4.378;2022-09-13T02:52:46;3.73;;;1.17;;
19221;SDS011;9745;50.828;4.378;2022-09-13T02:55:22;3.17;;;1.70;;
19221;SDS011;9745;50.828;4.378;2022-09-13T03:00:19;2.77;;;1.50;;
19221;SDS011;9745;50.828;4.378;2022-09-13T03:02:45;4.13;;;1.63;;
19221;SDS011;9745;50.828;4.378;2022-09-13T03:05:11;2.57;;;1.40;;
19221;SDS011;9745;50.828;4.378;2022-09-13T03:07:37;3.73;;;1.73;;
19221;SDS011;9745;50.828;4.378;2022-09-13T03:10:07;4.90;;;1.77;;
19221;SDS011;9745;50.828;4.378;2022-09-13T03:25:42;2.77;;;1.70;;
19221;SDS011;9745;50.828;4.378;2022-09-13T03:31:00;2.33;;;1.87;;
19221;SDS011;9745;50.828;4.378;2022-09-13T03:33:28;3.47;;;1.50;;
19221;SDS011;9745;50.828;4.378;2022-09-13T03:35:59;3.53;;;1.60;;
19221;SDS011;9745;50.828;4.378;2022-09-13T03:38:30;4.57;;;1.83;;
19221;SDS011;9745;50.828;4.378;2022-09-13T03:43:35;3.30;;;1.77;;
19221;SDS011;9745;50.828;4.378;2022-09-13T03:46:04;3.33;;;1.70;;
19221;SDS011;9745;50.828;4.378;2022-09-13T03:48:31;2.57;;;2.07;;
19221;SDS011;9745;50.828;4.378;2022-09-13T03:51:01;2.53;;;1.90;;
19221;SDS011;9745;50.828;4.378;2022-09-13T03:53:28;4.00;;;1.80;;
19221;SDS011;9745;50.828;4.378;2022-09-13T03:55:55;4.30;;;1.97;;
19221;SDS011;9745;50.828;4.378;2022-09-13T03:58:21;6.77;;;2.20;;
19221;SDS011;9745;50.828;4.378;2022-09-13T04:00:47;2.63;;;1.80;;
19221;SDS011;9745;50.828;4.378;2022-09-13T04:03:14;3.60;;;1.77;;
19221;SDS011;9745;50.828;4.378;2022-09-13T04:05:40;6.00;;;2.07;;
19221;SDS011;9745;50.828;4.378;2022-09-13T04:08:06;6.10;;;2.03;;
19221;SDS011;9745;50.828;4.378;2022-09-13T04:10:33;3.97;;;1.53;;
19221;SDS011;9745;50.828;4.378;2022-09-13T04:12:59;4.67;;;2.00;;
19221;SDS011;9745;50.828;4.378;2022-09-13T04:15:26;6.30;;;2.60;;
19221;SDS011;9745;50.828;4.378;2022-09-13T04:17:52;4.30;;;2.07;;
19221;SDS011;9745;50.828;4.378;2022-09-13T04:20:18;3.80;;;2.40;;
19221;SDS011;9745;50.828;4.378;2022-09-13T04:22:49;2.53;;;1.70;;
19221;SDS011;9745;50.828;4.378;2022-09-13T04:25:15;4.37;;;2.00;;
19221;SDS011;9745;50.828;4.378;2022-09-13T04:27:41;3.57;;;1.90;;
19221;SDS011;9745;50.828;4.378;2022-09-13T04:30:07;4.17;;;1.90;;
19221;SDS011;9745;50.828;4.378;2022-09-13T04:32:34;3.63;;;1.80;;
19221;SDS011;9745;50.828;4.378;2022-09-13T04:34:59;4.73;;;2.10;;
19221;SDS011;9745;50.828;4.378;2022-09-13T04:37:25;4.27;;;1.90;;
19221;SDS011;9745;50.828;4.378;2022-09-13T04:39:51;5.27;;;2.37;;
19221;SDS011;9745;50.828;4.378;2022-09-13T04:42:17;2.83;;;2.30;;
19221;SDS011;9745;50.828;4.378;2022-09-13T04:44:43;3.40;;;1.80;;
19221;SDS011;9745;50.828;4.378;2022-09-13T04:47:09;3.40;;;2.13;;
19221;SDS011;9745;50.828;4.378;2022-09-13T04:49:36;2.83;;;1.70;;
19221;SDS011;9745;50.828;4.378;2022-09-13T04:52:02;4.53;;;2.00;;
19221;SDS011;9745;50.828;4.378;2022-09-13T04:54:28;3.63;;;1.90;;
19221;SDS011;9745;50.828;4.378;2022-09-13T04:56:54;3.77;;;2.10;;
19221;SDS011;9745;50.828;4.378;2022-09-13T04:59:20;2.40;;;1.73;;
19221;SDS011;9745;50.828;4.378;2022-09-13T05:01:46;3.37;;;2.27;;
19221;SDS011;9745;50.828;4.378;2022-09-13T05:04:12;5.23;;;1.97;;
19221;SDS011;9745;50.828;4.378;2022-09-13T05:06:38;2.80;;;2.37;;
19221;SDS011;9745;50.828;4.378;2022-09-13T05:09:04;5.50;;;2.20;;
19221;SDS011;9745;50.828;4.378;2022-09-13T05:11:30;4.53;;;2.20;;
19221;SDS011;9745;50.828;4.378;2022-09-13T05:13:57;6.47;;;2.40;;
19221;SDS011;9745;50.828;4.378;2022-09-13T05:16:24;5.70;;;2.50;;
19221;SDS011;9745;50.828;4.378;2022-09-13T05:18:51;4.20;;;2.20;;
19221;SDS011;9745;50.828;4.378;2022-09-13T05:21:17;3.70;;;2.70;;
19221;SDS011;9745;50.828;4.378;2022-09-13T05:23:44;3.07;;;2.43;;
19221;SDS011;9745;50.828;4.378;2022-09-13T05:26:10;4.10;;;2.60;;
19221;SDS011;9745;50.828;4.378;2022-09-13T05:28:36;3.70;;;2.43;;
19221;SDS011;9745;50.828;4.378;2022-09-13T05:31:03;4.73;;;2.70;;
19221;SDS011;9745;50.828;4.378;2022-09-13T05:33:31;5.00;;;3.00;;
19221;SDS011;9745;50.828;4.378;2022-09-13T05:35:57;6.13;;;2.83;;
19221;SDS011;9745;50.828;4.378;2022-09-13T05:38:23;4.33;;;2.83;;
19221;SDS011;9745;50.828;4.378;2022-09-13T05:40:53;5.67;;;3.10;;
19221;SDS011;9745;50.828;4.378;2022-09-13T05:43:26;4.80;;;3.00;;
19221;SDS011;9745;50.828;4.378;2022-09-13T05:48:50;4.23;;;3.47;;
19221;SDS011;9745;50.828;4.378;2022-09-13T05:51:17;11.97;;;5.40;;
19221;SDS011;9745;50.828;4.378;2022-09-13T05:53:44;8.30;;;3.93;;
19221;SDS011;9745;50.828;4.378;2022-09-13T05:56:14;6.00;;;3.90;;
19221;SDS011;9745;50.828;4.378;2022-09-13T05:58:42;8.63;;;4.40;;
19221;SDS011;9745;50.828;4.378;2022-09-13T06:01:08;4.80;;;3.57;;
19221;SDS011;9745;50.828;4.378;2022-09-13T06:03:35;5.83;;;3.77;;
19221;SDS011;9745;50.828;4.378;2022-09-13T06:06:01;8.17;;;4.27;;
19221;SDS011;9745;50.828;4.378;2022-09-13T06:08:29;5.87;;;4.03;;
19221;SDS011;9745;50.828;4.378;2022-09-13T06:11:00;9.00;;;4.47;;
19221;SDS011;9745;50.828;4.378;2022-09-13T06:13:27;7.80;;;4.87;;
19221;SDS011;9745;50.828;4.378;2022-09-13T06:15:53;6.33;;;4.40;;
19221;SDS011;9745;50.828;4.378;2022-09-13T06:18:19;9.17;;;4.30;;
19221;SDS011;9745;50.828;4.378;2022-09-13T06:20:46;8.83;;;4.10;;
19221;SDS011;9745;50.828;4.378;2022-09-13T06:23:12;7.60;;;4.70;;
19221;SDS011;9745;50.828;4.378;2022-09-13T06:25:38;6.97;;;4.30;;
19221;SDS011;9745;50.828;4.378;2022-09-13T06:28:04;7.97;;;4.33;;
19221;SDS011;9745;50.828;4.378;2022-09-13T06:30:30;5.73;;;4.43;;
19221;SDS011;9745;50.828;4.378;2022-09-13T06:32:56;7.37;;;5.63;;
19221;SDS011;9745;50.828;4.378;2022-09-13T06:35:22;7.93;;;4.80;;
19221;SDS011;9745;50.828;4.378;2022-09-13T06:37:48;10.17;;;4.70;;
19221;SDS011;9745;50.828;4.378;2022-09-13T06:40:14;14.07;;;5.23;;
19221;SDS011;9745;50.828;4.378;2022-09-13T06:42:44;10.90;;;4.53;;
19221;SDS011;9745;50.828;4.378;2022-09-13T06:45:10;10.37;;;5.10;;
19221;SDS011;9745;50.828;4.378;2022-09-13T06:47:36;9.20;;;4.50;;
19221;SDS011;9745;50.828;4.378;2022-09-13T06:50:02;9.33;;;4.90;;
19221;SDS011;9745;50.828;4.378;2022-09-13T06:52:29;8.33;;;4.67;;
19221;SDS011;9745;50.828;4.378;2022-09-13T06:54:54;7.13;;;4.13;;
19221;SDS011;9745;50.828;4.378;2022-09-13T06:57:20;10.13;;;4.70;;
19221;SDS011;9745;50.828;4.378;2022-09-13T06:59:46;13.57;;;4.77;;
19221;SDS011;9745;50.828;4.378;2022-09-13T07:02:12;10.90;;;4.77;;
19221;SDS011;9745;50.828;4.378;2022-09-13T07:04:39;7.23;;;4.77;;
19221;SDS011;9745;50.828;4.378;2022-09-13T07:07:05;11.47;;;4.63;;
19221;SDS011;9745;50.828;4.378;2022-09-13T07:09:31;12.13;;;5.13;;
19221;SDS011;9745;50.828;4.378;2022-09-13T07:12:00;13.57;;;4.80;;
19221;SDS011;9745;50.828;4.378;2022-09-13T07:14:27;10.33;;;4.63;;
19221;SDS011;9745;50.828;4.378;2022-09-13T07:16:53;8.97;;;4.57;;
19221;SDS011;9745;50.828;4.378;2022-09-13T07:19:23;8.93;;;4.93;;
19221;SDS011;9745;50.828;4.378;2022-09-13T07:21:50;9.00;;;4.20;;
19221;SDS011;9745;50.828;4.378;2022-09-13T07:24:17;9.93;;;4.20;;
19221;SDS011;9745;50.828;4.378;2022-09-13T07:26:43;14.17;;;4.50;;
19221;SDS011;9745;50.828;4.378;2022-09-13T07:29:11;8.53;;;5.07;;
19221;SDS011;9745;50.828;4.378;2022-09-13T07:31:39;15.67;;;6.33;;
19221;SDS011;9745;50.828;4.378;2022-09-13T07:34:06;9.13;;;4.50;;
19221;SDS011;9745;50.828;4.378;2022-09-13T07:36:34;13.27;;;4.87;;
19221;SDS011;9745;50.828;4.378;2022-09-13T07:39:00;12.27;;;4.30;;
19221;SDS011;9745;50.828;4.378;2022-09-13T07:41:27;15.17;;;4.10;;
19221;SDS011;9745;50.828;4.378;2022-09-13T07:43:53;11.33;;;3.90;;
19221;SDS011;9745;50.828;4.378;2022-09-13T07:46:20;11.40;;;3.50;;
19221;SDS011;9745;50.828;4.378;2022-09-13T07:48:47;11.97;;;3.73;;
19221;SDS011;9745;50.828;4.378;2022-09-13T07:51:17;8.37;;;3.33;;
19221;SDS011;9745;50.828;4.378;2022-09-13T07:53:45;11.00;;;3.50;;
19221;SDS011;9745;50.828;4.378;2022-09-13T07:56:12;5.47;;;2.67;;
19221;SDS011;9745;50.828;4.378;2022-09-13T07:58:39;5.73;;;2.87;;
19221;SDS011;9745;50.828;4.378;2022-09-13T08:01:09;9.77;;;2.97;;
19221;SDS011;9745;50.828;4.378;2022-09-13T08:03:36;11.70;;;2.83;;
19221;SDS011;9745;50.828;4.378;2022-09-13T08:06:02;5.83;;;2.60;;
19221;SDS011;9745;50.828;4.378;2022-09-13T08:08:28;5.97;;;2.50;;
19221;SDS011;9745;50.828;4.378;2022-09-13T08:10:55;7.30;;;2.30;;
19221;SDS011;9745;50.828;4.378;2022-09-13T08:13:21;5.43;;;2.50;;
19221;SDS011;9745;50.828;4.378;2022-09-13T08:15:47;6.37;;;2.23;;
19221;SDS011;9745;50.828;4.378;2022-09-13T08:18:14;4.97;;;2.17;;
19221;SDS011;9745;50.828;4.378;2022-09-13T08:20:40;8.03;;;3.20;;
19221;SDS011;9745;50.828;4.378;2022-09-13T08:23:06;8.77;;;3.30;;
19221;SDS011;9745;50.828;4.378;2022-09-13T08:25:33;6.27;;;2.83;;
19221;SDS011;9745;50.828;4.378;2022-09-13T08:28:00;10.93;;;3.73;;
19221;SDS011;9745;50.828;4.378;2022-09-13T08:30:26;7.97;;;3.13;;
19221;SDS011;9745;50.828;4.378;2022-09-13T08:33:00;9.77;;;3.23;;
19221;SDS011;9745;50.828;4.378;2022-09-13T08:35:26;12.63;;;3.47;;
19221;SDS011;9745;50.828;4.378;2022-09-13T08:37:52;13.17;;;3.57;;
19221;SDS011;9745;50.828;4.378;2022-09-13T08:40:19;12.90;;;3.03;;
19221;SDS011;9745;50.828;4.378;2022-09-13T08:45:11;12.47;;;4.03;;
19221;SDS011;9745;50.828;4.378;2022-09-13T08:47:42;9.40;;;3.30;;
19221;SDS011;9745;50.828;4.378;2022-09-13T08:52:38;10.97;;;3.23;;
19221;SDS011;9745;50.828;4.378;2022-09-13T08:55:12;9.60;;;3.30;;
19221;SDS011;9745;50.828;4.378;2022-09-13T08:57:52;7.00;;;2.70;;
19221;SDS011;9745;50.828;4.378;2022-09-13T09:00:20;8.43;;;3.20;;
19221;SDS011;9745;50.828;4.378;2022-09-13T09:02:49;10.47;;;3.60;;
19221;SDS011;9745;50.828;4.378;2022-09-13T09:05:23;10.07;;;4.37;;
19221;SDS011;9745;50.828;4.378;2022-09-13T09:07:57;12.20;;;3.63;;
19221;SDS011;9745;50.828;4.378;2022-09-13T09:10:25;10.03;;;3.30;;
19221;SDS011;9745;50.828;4.378;2022-09-13T09:12:58;13.07;;;3.93;;
19221;SDS011;9745;50.828;4.378;2022-09-13T09:15:25;8.37;;;3.70;;
19221;SDS011;9745;50.828;4.378;2022-09-13T09:20:29;7.30;;;3.50;;
19221;SDS011;9745;50.828;4.378;2022-09-13T09:22:57;7.87;;;4.53;;
19221;SDS011;9745;50.828;4.378;2022-09-13T09:25:25;12.73;;;4.30;;
19221;SDS011;9745;50.828;4.378;2022-09-13T09:27:51;13.93;;;4.50;;
19221;SDS011;9745;50.828;4.378;2022-09-13T09:30:18;13.27;;;4.40;;
19221;SDS011;9745;50.828;4.378;2022-09-13T09:33:03;15.63;;;5.47;;
19221;SDS011;9745;50.828;4.378;2022-09-13T09:41:04;14.73;;;5.40;;
19221;SDS011;9745;50.828;4.378;2022-09-13T09:43:54;12.63;;;4.30;;
19221;SDS011;9745;50.828;4.378;2022-09-13T09:46:18;12.00;;;4.40;;
19221;SDS011;9745;50.828;4.378;2022-09-13T09:48:50;13.00;;;3.87;;
19221;SDS011;9745;50.828;4.378;2022-09-13T09:51:18;10.73;;;4.20;;
19221;SDS011;9745;50.828;4.378;2022-09-13T09:53:49;12.27;;;7.23;;
19221;SDS011;9745;50.828;4.378;2022-09-13T09:58:46;10.53;;;3.30;;
19221;SDS011;9745;50.828;4.378;2022-09-13T10:01:31;12.80;;;3.17;;
19221;SDS011;9745;50.828;4.378;2022-09-13T10:04:03;8.13;;;3.00;;
19221;SDS011;9745;50.828;4.378;2022-09-13T10:06:32;8.97;;;2.80;;
19221;SDS011;9745;50.828;4.378;2022-09-13T10:11:36;8.00;;;3.10;;
19221;SDS011;9745;50.828;4.378;2022-09-13T10:14:03;11.90;;;3.50;;
19221;SDS011;9745;50.828;4.378;2022-09-13T10:16:29;10.93;;;3.17;;
19221;SDS011;9745;50.828;4.378;2022-09-13T10:19:20;12.33;;;3.87;;
19221;SDS011;9745;50.828;4.378;2022-09-13T10:21:44;10.83;;;3.40;;
19221;SDS011;9745;50.828;4.378;2022-09-13T10:24:23;10.43;;;3.37;;
19221;SDS011;9745;50.828;4.378;2022-09-13T10:26:49;12.13;;;4.00;;
19221;SDS011;9745;50.828;4.378;2022-09-13T10:29:15;13.77;;;3.87;;
19221;SDS011;9745;50.828;4.378;2022-09-13T10:31:43;6.93;;;3.50;;
19221;SDS011;9745;50.828;4.378;2022-09-13T10:36:36;7.30;;;2.83;;
19221;SDS011;9745;50.828;4.378;2022-09-13T10:39:03;8.10;;;3.10;;
19221;SDS011;9745;50.828;4.378;2022-09-13T10:41:34;4.93;;;3.10;;
19221;SDS011;9745;50.828;4.378;2022-09-13T10:44:05;5.77;;;2.67;;
19221;SDS011;9745;50.828;4.378;2022-09-13T10:46:33;14.20;;;3.00;;
19221;SDS011;9745;50.828;4.378;2022-09-13T10:49:00;6.10;;;2.57;;
19221;SDS011;9745;50.828;4.378;2022-09-13T10:54:09;8.63;;;2.67;;
19221;SDS011;9745;50.828;4.378;2022-09-13T10:56:40;10.87;;;3.20;;
19221;SDS011;9745;50.828;4.378;2022-09-13T10:59:26;6.13;;;2.60;;
19221;SDS011;9745;50.828;4.378;2022-09-13T11:04:28;6.07;;;2.90;;
19221;SDS011;9745;50.828;4.378;2022-09-13T11:09:35;8.77;;;2.73;;
19221;SDS011;9745;50.828;4.378;2022-09-13T11:17:34;9.03;;;3.43;;
19221;SDS011;9745;50.828;4.378;2022-09-13T11:20:16;7.97;;;2.90;;
19221;SDS011;9745;50.828;4.378;2022-09-13T11:35:23;6.67;;;2.40;;
19221;SDS011;9745;50.828;4.378;2022-09-13T11:41:11;5.27;;;2.17;;
19221;SDS011;9745;50.828;4.378;2022-09-13T11:54:07;7.00;;;3.23;;
19221;SDS011;9745;50.828;4.378;2022-09-13T11:56:39;13.13;;;3.33;;
19221;SDS011;9745;50.828;4.378;2022-09-13T12:01:49;9.50;;;2.43;;
19221;SDS011;9745;50.828;4.378;2022-09-13T12:07:22;5.53;;;2.70;;
19221;SDS011;9745;50.828;4.378;2022-09-13T12:09:51;4.43;;;2.53;;
19221;SDS011;9745;50.828;4.378;2022-09-13T12:12:18;4.13;;;2.47;;
19221;SDS011;9745;50.828;4.378;2022-09-13T12:14:50;6.97;;;2.90;;
19221;SDS011;9745;50.828;4.378;2022-09-13T12:17:28;8.57;;;2.57;;
19221;SDS011;9745;50.828;4.378;2022-09-13T12:19:55;4.13;;;2.80;;
19221;SDS011;9745;50.828;4.378;2022-09-13T12:22:22;6.30;;;3.00;;
19221;SDS011;9745;50.828;4.378;2022-09-13T12:24:50;8.90;;;2.70;;
19221;SDS011;9745;50.828;4.378;2022-09-13T12:30:05;10.53;;;3.60;;
19221;SDS011;9745;50.828;4.378;2022-09-13T12:32:32;6.83;;;2.93;;
19221;SDS011;9745;50.828;4.378;2022-09-13T12:35:02;5.03;;;2.83;;
19221;SDS011;9745;50.828;4.378;2022-09-13T13:01:20;8.23;;;3.00;;
19221;SDS011;9745;50.828;4.378;2022-09-13T13:03:53;4.83;;;2.47;;
19221;SDS011;9745;50.828;4.378;2022-09-13T13:06:31;14.23;;;3.10;;
19221;SDS011;9745;50.828;4.378;2022-09-13T13:08:59;6.37;;;3.43;;
19221;SDS011;9745;50.828;4.378;2022-09-13T13:11:27;8.07;;;3.17;;
19221;SDS011;9745;50.828;4.378;2022-09-13T13:14:02;11.90;;;3.33;;
19221;SDS011;9745;50.828;4.378;2022-09-13T13:16:37;6.30;;;3.60;;
19221;SDS011;9745;50.828;4.378;2022-09-13T13:21:49;6.97;;;3.70;;
19221;SDS011;9745;50.828;4.378;2022-09-13T13:34:33;9.47;;;3.83;;
19221;SDS011;9745;50.828;4.378;2022-09-13T13:37:05;7.43;;;3.47;;
19221;SDS011;9745;50.828;4.378;2022-09-13T13:39:48;7.57;;;3.20;;
19221;SDS011;9745;50.828;4.378;2022-09-13T13:42:21;8.00;;;3.20;;
19221;SDS011;9745;50.828;4.378;2022-09-13T13:49:48;3.70;;;3.20;;
19221;SDS011;9745;50.828;4.378;2022-09-13T13:59:49;6.77;;;3.93;;
19221;SDS011;9745;50.828;4.378;2022-09-13T14:02:17;9.93;;;4.03;;
19221;SDS011;9745;50.828;4.378;2022-09-13T14:07:37;7.37;;;3.33;;
19221;SDS011;9745;50.828;4.378;2022-09-13T14:10:17;6.50;;;3.23;;
19221;SDS011;9745;50.828;4.378;2022-09-13T14:13:06;6.77;;;3.60;;
19221;SDS011;9745;50.828;4.378;2022-09-13T14:20:58;5.83;;;3.10;;
19221;SDS011;9745;50.828;4.378;2022-09-13T14:23:25;7.17;;;3.47;;
19221;SDS011;9745;50.828;4.378;2022-09-13T14:25:58;6.33;;;3.90;;
19221;SDS011;9745;50.828;4.378;2022-09-13T14:28:24;6.77;;;3.57;;
19221;SDS011;9745;50.828;4.378;2022-09-13T14:30:52;7.40;;;4.00;;
19221;SDS011;9745;50.828;4.378;2022-09-13T14:33:26;11.23;;;3.77;;
19221;SDS011;9745;50.828;4.378;2022-09-13T14:35:56;5.67;;;3.67;;
19221;SDS011;9745;50.828;4.378;2022-09-13T14:38:23;8.20;;;3.43;;
19221;SDS011;9745;50.828;4.378;2022-09-13T14:40:52;8.10;;;3.97;;
19221;SDS011;9745;50.828;4.378;2022-09-13T14:43:19;6.00;;;3.77;;
19221;SDS011;9745;50.828;4.378;2022-09-13T14:45:47;9.20;;;3.43;;
19221;SDS011;9745;50.828;4.378;2022-09-13T14:48:15;8.20;;;4.43;;
19221;SDS011;9745;50.828;4.378;2022-09-13T14:50:53;8.17;;;4.67;;
19221;SDS011;9745;50.828;4.378;2022-09-13T14:53:23;9.17;;;5.67;;
19221;SDS011;9745;50.828;4.378;2022-09-13T14:55:54;7.00;;;4.23;;
19221;SDS011;9745;50.828;4.378;2022-09-13T14:58:25;11.50;;;4.10;;
19221;SDS011;9745;50.828;4.378;2022-09-13T15:01:04;7.93;;;3.90;;
19221;SDS011;9745;50.828;4.378;2022-09-13T15:03:31;7.53;;;4.70;;
19221;SDS011;9745;50.828;4.378;2022-09-13T15:05:59;10.17;;;4.73;;
19221;SDS011;9745;50.828;4.378;2022-09-13T15:10:59;8.67;;;4.47;;
19221;SDS011;9745;50.828;4.378;2022-09-13T15:13:25;9.13;;;4.40;;
19221;SDS011;9745;50.828;4.378;2022-09-13T15:15:51;9.80;;;4.37;;
19221;SDS011;9745;50.828;4.378;2022-09-13T15:28:28;10.13;;;5.13;;
19221;SDS011;9745;50.828;4.378;2022-09-13T15:30:54;9.73;;;5.07;;
19221;SDS011;9745;50.828;4.378;2022-09-13T15:33:22;6.93;;;4.30;;
19221;SDS011;9745;50.828;4.378;2022-09-13T15:35:49;8.60;;;4.70;;
19221;SDS011;9745;50.828;4.378;2022-09-13T15:40:47;6.90;;;4.10;;
19221;SDS011;9745;50.828;4.378;2022-09-13T15:43:21;7.50;;;4.33;;
19221;SDS011;9745;50.828;4.378;2022-09-13T15:45:47;7.57;;;3.97;;
19221;SDS011;9745;50.828;4.378;2022-09-13T15:48:30;8.63;;;4.00;;
19221;SDS011;9745;50.828;4.378;2022-09-13T15:51:06;6.23;;;4.40;;
19221;SDS011;9745;50.828;4.378;2022-09-13T15:53:33;11.97;;;4.80;;
19221;SDS011;9745;50.828;4.378;2022-09-13T15:55:59;7.77;;;4.63;;
19221;SDS011;9745;50.828;4.378;2022-09-13T15:58:25;7.37;;;5.00;;
19221;SDS011;9745;50.828;4.378;2022-09-13T16:00:51;7.20;;;4.80;;
19221;SDS011;9745;50.828;4.378;2022-09-13T16:03:17;7.83;;;5.30;;
19221;SDS011;9745;50.828;4.378;2022-09-13T16:05:43;10.93;;;5.90;;
19221;SDS011;9745;50.828;4.378;2022-09-13T16:08:10;10.43;;;5.70;;
19221;SDS011;9745;50.828;4.378;2022-09-13T16:10:36;6.60;;;5.03;;
19221;SDS011;9745;50.828;4.378;2022-09-13T16:13:02;12.20;;;5.87;;
19221;SDS011;9745;50.828;4.378;2022-09-13T16:15:28;7.67;;;5.13;;
19221;SDS011;9745;50.828;4.378;2022-09-13T16:17:54;11.77;;;5.00;;
19221;SDS011;9745;50.828;4.378;2022-09-13T16:20:20;7.87;;;5.57;;
19221;SDS011;9745;50.828;4.378;2022-09-13T16:22:46;8.83;;;4.87;;
19221;SDS011;9745;50.828;4.378;2022-09-13T16:25:12;7.77;;;4.83;;
19221;SDS011;9745;50.828;4.378;2022-09-13T16:27:39;13.60;;;8.33;;
19221;SDS011;9745;50.828;4.378;2022-09-13T16:30:05;13.43;;;10.90;;
19221;SDS011;9745;50.828;4.378;2022-09-13T16:32:33;11.53;;;7.27;;
19221;SDS011;9745;50.828;4.378;2022-09-13T16:34:59;8.23;;;5.80;;
19221;SDS011;9745;50.828;4.378;2022-09-13T16:37:24;13.37;;;6.83;;
19221;SDS011;9745;50.828;4.378;2022-09-13T16:39:50;14.47;;;5.53;;
19221;SDS011;9745;50.828;4.378;2022-09-13T16:42:17;11.07;;;6.50;;
19221;SDS011;9745;50.828;4.378;2022-09-13T16:44:43;12.73;;;6.07;;
19221;SDS011;9745;50.828;4.378;2022-09-13T16:47:09;11.20;;;5.80;;
19221;SDS011;9745;50.828;4.378;2022-09-13T16:49:36;12.83;;;6.13;;
19221;SDS011;9745;50.828;4.378;2022-09-13T16:52:02;9.67;;;6.23;;
19221;SDS011;9745;50.828;4.378;2022-09-13T16:54:28;8.87;;;6.00;;
19221;SDS011;9745;50.828;4.378;2022-09-13T16:56:55;11.73;;;5.70;;
19221;SDS011;9745;50.828;4.378;2022-09-13T16:59:22;9.43;;;6.00;;
19221;SDS011;9745;50.828;4.378;2022-09-13T17:01:48;7.73;;;5.13;;
19221;SDS011;9745;50.828;4.378;2022-09-13T17:04:14;5.63;;;4.40;;
19221;SDS011;9745;50.828;4.378;2022-09-13T17:06:41;5.30;;;3.93;;
19221;SDS011;9745;50.828;4.378;2022-09-13T17:09:07;6.50;;;3.80;;
19221;SDS011;9745;50.828;4.378;2022-09-13T17:11:35;6.63;;;4.07;;
19221;SDS011;9745;50.828;4.378;2022-09-13T17:14:02;7.03;;;4.23;;
19221;SDS011;9745;50.828;4.378;2022-09-13T17:18:55;6.23;;;5.03;;
19221;SDS011;9745;50.828;4.378;2022-09-13T17:21:21;8.93;;;5.23;;
19221;SDS011;9745;50.828;4.378;2022-09-13T17:23:48;8.70;;;5.40;;
19221;SDS011;9745;50.828;4.378;2022-09-13T17:26:14;9.73;;;5.63;;
19221;SDS011;9745;50.828;4.378;2022-09-13T17:28:40;10.53;;;5.77;;
19221;SDS011;9745;50.828;4.378;2022-09-13T17:31:06;9.17;;;5.90;;
19221;SDS011;9745;50.828;4.378;2022-09-13T17:33:32;9.03;;;6.10;;
19221;SDS011;9745;50.828;4.378;2022-09-13T17:36:02;9.37;;;5.97;;
19221;SDS011;9745;50.828;4.378;2022-09-13T17:38:28;6.93;;;5.63;;
19221;SDS011;9745;50.828;4.378;2022-09-13T17:41:01;6.43;;;5.17;;
19221;SDS011;9745;50.828;4.378;2022-09-13T17:43:27;8.70;;;5.83;;
19221;SDS011;9745;50.828;4.378;2022-09-13T17:45:54;11.80;;;7.00;;
19221;SDS011;9745;50.828;4.378;2022-09-13T17:48:20;8.67;;;6.33;;
19221;SDS011;9745;50.828;4.378;2022-09-13T17:50:46;13.70;;;7.93;;
19221;SDS011;9745;50.828;4.378;2022-09-13T17:53:12;23.10;;;11.13;;
19221;SDS011;9745;50.828;4.378;2022-09-13T17:55:48;12.50;;;7.23;;
19221;SDS011;9745;50.828;4.378;2022-09-13T17:58:14;10.87;;;6.40;;
19221;SDS011;9745;50.828;4.378;2022-09-13T18:00:40;14.27;;;8.13;;
19221;SDS011;9745;50.828;4.378;2022-09-13T18:03:06;12.37;;;7.60;;
19221;SDS011;9745;50.828;4.378;2022-09-13T18:05:32;8.77;;;6.97;;
19221;SDS011;9745;50.828;4.378;2022-09-13T18:07:58;10.07;;;7.37;;
19221;SDS011;9745;50.828;4.378;2022-09-13T18:10:24;9.57;;;7.63;;
19221;SDS011;9745;50.828;4.378;2022-09-13T18:12:50;11.13;;;7.40;;
19221;SDS011;9745;50.828;4.378;2022-09-13T18:15:16;9.53;;;7.50;;
19221;SDS011;9745;50.828;4.378;2022-09-13T18:17:42;12.20;;;7.60;;
19221;SDS011;9745;50.828;4.378;2022-09-13T18:20:08;11.33;;;7.80;;
19221;SDS011;9745;50.828;4.378;2022-09-13T18:22:34;13.23;;;7.97;;
19221;SDS011;9745;50.828;4.378;2022-09-13T18:25:00;12.10;;;7.50;;
19221;SDS011;9745;50.828;4.378;2022-09-13T18:27:26;11.33;;;8.30;;